Time;durP1;ratioP1;P1;durP2;ratioP2;P2;SDS_P1;SDS_P2;PMS_P1;PMS_P2;Temp;Humidity;BMP_temperature;BMP_pressure;BME280_temperature;BME280_humidity;BME280_pressure;Samples;Min_cycle;Max_cycle;Signal;HPM_P1;HPM_P2
2022/09/28 00:01:16;;;;;;;1.95;1.00;;;;;;;7.02;100.00;94106.19;5002980;28;20050;-77
2022/09/28 00:03:42;;;;;;;3.05;0.98;;;;;;;7.07;100.00;94100.91;5004864;28;20082;-76
2022/09/28 00:06:11;;;;;;;1.10;0.98;;;;;;;7.14;100.00;94099.78;5025011;28;20044;-76
2022/09/28 00:08:37;;;;;;;1.95;0.77;;;;;;;7.14;100.00;94089.31;5020698;28;20196;-77
2022/09/28 00:11:06;;;;;;;2.42;0.70;;;;;;;7.16;100.00;94087.22;5029619;28;20046;-76
2022/09/28 00:13:32;;;;;;;2.15;0.88;;;;;;;7.11;100.00;94083.59;5004987;28;20042;-77
2022/09/28 00:16:20;;;;;;;1.20;0.90;;;;;;;7.15;100.00;94085.66;5022384;28;20062;-77
2022/09/28 00:18:46;;;;;;;3.30;1.00;;;;;;;7.21;100.00;94074.03;5024184;28;20069;-77
2022/09/28 00:21:17;;;;;;;1.00;0.60;;;;;;;7.21;100.00;94074.03;5022284;28;20069;-77
2022/09/28 00:26:28;;;;;;;;;;;;;;;7.19;100.00;94060.47;5011818;28;20116;-78
2022/09/28 00:28:57;;;;;;;1.50;0.70;;;;;;;7.20;100.00;94057.56;5007341;28;19921;-77
2022/09/28 00:31:24;;;;;;;1.42;0.82;;;;;;;7.11;100.00;94044.34;5004364;28;20042;-77
2022/09/28 00:33:50;;;;;;;0.60;0.60;;;;;;;7.15;100.00;94038.56;4990561;28;20046;-78
2022/09/28 00:36:16;;;;;;;2.45;0.82;;;;;;;7.17;100.00;94031.19;4982333;28;20100;-76
2022/09/28 00:38:41;;;;;;;1.70;0.70;;;;;;;7.13;100.00;94030.22;4990502;28;20766;-76
2022/09/28 00:41:10;;;;;;;2.15;0.63;;;;;;;7.14;100.00;94032.56;4989922;28;20046;-76
2022/09/28 00:43:36;;;;;;;0.55;0.55;;;;;;;7.14;100.00;94022.09;4997711;28;20049;-76
2022/09/28 00:46:08;;;;;;;1.25;1.02;;;;;;;7.20;100.00;94014.94;4991546;28;20117;-76
2022/09/28 00:48:38;;;;;;;0.82;0.70;;;;;;;7.19;100.00;94016.00;4993081;28;20454;-76
2022/09/28 00:51:08;;;;;;;1.48;0.80;;;;;;;7.27;100.00;94021.38;5004260;28;20049;-77
2022/09/28 00:53:36;;;;;;;0.80;0.70;;;;;;;7.19;100.00;94016.00;5003123;28;20060;-77
2022/09/28 00:56:10;;;;;;;0.93;0.88;;;;;;;7.19;100.00;94018.63;5000851;28;20550;-78
2022/09/28 00:58:40;;;;;;;1.58;0.63;;;;;;;7.21;100.00;94021.72;5003168;28;20048;-77
2022/09/28 01:01:06;;;;;;;1.00;0.60;;;;;;;7.19;100.00;94021.22;4987765;28;20038;-77
2022/09/28 01:03:33;;;;;;;1.58;0.85;;;;;;;7.25;100.00;94018.25;5001979;28;20058;-77
2022/09/28 01:06:01;;;;;;;0.75;0.65;;;;;;;7.21;100.00;94016.47;4989310;28;20048;-77
2022/09/28 01:08:29;;;;;;;0.70;0.70;;;;;;;7.28;100.00;94003.81;4981625;28;20050;-77
2022/09/28 01:10:56;;;;;;;1.02;0.90;;;;;;;7.25;100.00;93992.06;5003501;28;20409;-77
2022/09/28 01:13:23;;;;;;;1.50;0.80;;;;;;;7.19;100.00;93989.84;5005452;28;20054;-77
2022/09/28 01:16:00;;;;;;;1.55;0.60;;;;;;;7.21;100.00;93990.31;4998933;28;20456;-77
2022/09/28 01:18:54;;;;;;;2.75;0.80;;;;;;;7.15;100.00;93984.38;4998082;28;20504;-77
2022/09/28 01:21:23;;;;;;;1.13;0.63;;;;;;;7.14;100.00;93968.97;5005544;28;20041;-75
2022/09/28 01:24:13;;;;;;;2.20;0.63;;;;;;;7.18;100.00;93962.13;4993198;28;20050;-75
2022/09/28 01:26:43;;;;;;;0.88;0.70;;;;;;;7.17;100.00;93963.97;5001390;28;20548;-77
2022/09/28 01:29:16;;;;;;;1.00;0.60;;;;;;;7.19;100.00;93958.44;5007412;28;20038;-77
2022/09/28 01:31:47;;;;;;;1.75;0.82;;;;;;;7.18;100.00;93962.13;4988647;28;20037;-77
2022/09/28 01:34:29;;;;;;;4.05;0.73;;;;;;;7.22;100.00;93950.00;5014082;28;20046;-78
2022/09/28 01:36:59;;;;;;;1.60;0.55;;;;;;;7.20;100.00;93952.16;4991424;28;20109;-77
2022/09/28 01:39:33;;;;;;;0.50;0.50;;;;;;;7.17;100.00;93939.63;4992368;28;20096;-78
2022/09/28 01:42:07;;;;;;;1.27;0.85;;;;;;;7.20;100.00;93931.22;5005618;28;20049;-78
2022/09/28 01:44:38;;;;;;;2.95;0.80;;;;;;;7.15;100.00;93929.44;5000955;28;20439;-78
2022/09/28 01:47:08;;;;;;;1.00;0.88;;;;;;;7.19;100.00;93924.44;4992542;28;20042;-77
2022/09/28 01:49:38;;;;;;;1.05;0.80;;;;;;;7.25;100.00;93918.03;5012868;28;20096;-77
2022/09/28 01:52:23;;;;;;;1.05;0.70;;;;;;;7.26;100.00;93909.91;5003747;28;20064;-77
2022/09/28 01:55:15;;;;;;;1.60;0.60;;;;;;;7.29;100.00;93903.31;5003753;28;20046;-77
2022/09/28 01:58:00;;;;;;;0.75;0.65;;;;;;;7.36;100.00;93903.72;5009232;28;20103;-77
2022/09/28 02:00:27;;;;;;;1.38;0.82;;;;;;;7.38;100.00;93896.34;4998617;28;20041;-77
2022/09/28 02:03:05;;;;;;;2.33;0.90;;;;;;;7.42;100.00;93886.09;4999203;28;20038;-77
2022/09/28 02:05:47;;;;;;;2.47;0.85;;;;;;;7.41;100.00;93876.69;4988829;28;20042;-78
2022/09/28 02:08:43;;;;;;;1.02;0.43;;;;;;;7.47;100.00;93872.94;4992586;28;20049;-77
2022/09/28 02:11:17;;;;;;;3.53;1.02;;;;;;;7.42;100.00;93875.63;5008033;28;20099;-77
2022/09/28 02:13:47;;;;;;;1.27;0.65;;;;;;;7.39;100.00;93860.50;5000451;28;20046;-77
2022/09/28 02:16:24;;;;;;;2.30;0.93;;;;;;;7.41;100.00;93853.13;5005224;28;20042;-77
2022/09/28 02:18:50;;;;;;;1.05;0.80;;;;;;;7.41;100.00;93855.75;4986871;28;20053;-77
2022/09/28 02:21:19;;;;;;;3.40;0.75;;;;;;;7.43;100.00;93836.09;5000236;28;20569;-77
2022/09/28 02:23:55;;;;;;;2.28;0.75;;;;;;;7.53;100.00;93844.81;5001496;28;20520;-77
2022/09/28 02:26:26;;;;;;;1.80;0.70;;;;;;;7.48;100.00;93842.28;5009427;28;20504;-77
2022/09/28 02:28:51;;;;;;;1.20;0.82;;;;;;;7.50;100.00;93829.69;4993897;28;20045;-77
2022/09/28 02:31:17;;;;;;;3.63;1.20;;;;;;;7.54;100.00;93830.66;4998475;28;20047;-77
2022/09/28 02:33:45;;;;;;;0.85;0.70;;;;;;;7.44;100.00;93816.69;5003618;28;20373;-76
2022/09/28 02:36:10;;;;;;;1.42;0.82;;;;;;;7.45;100.00;93818.22;5008692;28;20120;-76
2022/09/28 02:38:36;;;;;;;3.33;0.70;;;;;;;7.47;100.00;93812.72;5009595;28;20049;-76
2022/09/28 02:41:17;;;;;;;1.95;0.63;;;;;;;7.48;100.00;93810.88;5003155;28;20072;-76
2022/09/28 02:43:56;;;;;;;1.42;1.00;;;;;;;7.31;100.00;93812.22;4997556;28;20070;-76
2022/09/28 02:46:40;;;;;;;2.35;0.75;;;;;;;7.33;100.00;93815.34;5008650;28;20046;-76
2022/09/28 02:49:16;;;;;;;1.98;0.80;;;;;;;7.22;100.00;93808.75;5009091;28;20037;-76
2022/09/28 02:52:09;;;;;;;3.60;1.27;;;;;;;7.05;100.00;93807.47;4998542;28;20045;-76
2022/09/28 02:54:40;;;;;;;1.30;0.90;;;;;;;6.90;100.00;93802.50;5006273;28;20042;-76
2022/09/28 02:57:36;;;;;;;1.40;0.88;;;;;;;6.82;100.00;93798.69;5001449;28;20042;-76
2022/09/28 03:00:07;;;;;;;3.15;1.08;;;;;;;6.85;100.00;93794.72;5001149;28;20058;-76
2022/09/28 03:03:00;;;;;;;2.05;0.70;;;;;;;6.74;100.00;93784.44;4995327;28;20046;-76
2022/09/28 03:05:31;;;;;;;4.68;1.10;;;;;;;6.68;100.00;93782.97;5002740;28;20042;-76
2022/09/28 03:08:13;;;;;;;2.17;0.90;;;;;;;6.66;100.00;93782.47;5005789;28;20433;-76
2022/09/28 03:10:52;;;;;;;1.70;0.93;;;;;;;6.59;100.00;93771.59;4979637;28;20323;-76
2022/09/28 03:13:19;;;;;;;1.95;0.95;;;;;;;6.54;100.00;93769.09;4997168;28;20404;-77
2022/09/28 03:15:44;;;;;;;1.77;0.90;;;;;;;6.52;100.00;93768.59;5009948;28;20042;-77
2022/09/28 03:18:10;;;;;;;3.15;0.68;;;;;;;6.51;100.00;93769.66;5011052;28;20045;-77
2022/09/28 03:20:36;;;;;;;2.28;0.95;;;;;;;6.44;100.00;93771.84;5008884;28;20042;-77
2022/09/28 03:23:02;;;;;;;0.80;0.75;;;;;;;6.32;100.00;93762.63;4990346;28;20045;-76
2022/09/28 03:25:28;;;;;;;1.60;0.90;;;;;;;6.35;100.00;93764.69;5004818;28;20452;-76
2022/09/28 03:27:53;;;;;;;0.93;0.80;;;;;;;6.27;100.00;93781.00;5000575;28;20097;-76
2022/09/28 03:30:19;;;;;;;1.23;1.00;;;;;;;6.21;100.00;93766.47;5002483;28;20589;-76
2022/09/28 03:32:44;;;;;;;0.82;0.80;;;;;;;6.28;100.00;93772.09;4995064;28;20041;-76
2022/09/28 03:35:10;;;;;;;0.80;0.73;;;;;;;6.24;100.00;93768.50;4989335;28;20045;-76
2022/09/28 03:37:36;;;;;;;1.10;0.75;;;;;;;6.18;100.00;93761.81;4991744;28;20519;-76
2022/09/28 03:40:02;;;;;;;1.55;0.95;;;;;;;6.20;100.00;93770.13;4978982;28;20516;-76
2022/09/28 03:42:28;;;;;;;3.78;1.00;;;;;;;6.25;100.00;93764.84;5003560;28;20037;-76
2022/09/28 03:44:54;;;;;;;1.88;1.10;;;;;;;6.19;100.00;93758.13;5006099;28;20492;-77
2022/09/28 03:47:20;;;;;;;0.80;0.80;;;;;;;6.22;100.00;93747.09;4999646;28;20093;-77
2022/09/28 03:49:46;;;;;;;2.00;1.15;;;;;;;6.27;100.00;93754.09;5006110;28;20061;-77
2022/09/28 03:52:12;;;;;;;2.40;1.13;;;;;;;6.27;100.00;93749.66;5002987;28;20037;-77
2022/09/28 03:54:38;;;;;;;0.80;0.70;;;;;;;6.20;100.00;93749.22;4989331;28;20836;-77
2022/09/28 03:57:04;;;;;;;0.93;0.65;;;;;;;6.21;100.00;93745.56;5007324;28;20061;-77
2022/09/28 03:59:29;;;;;;;1.60;1.00;;;;;;;6.21;100.00;93742.94;5001262;28;20599;-77
2022/09/28 04:01:55;;;;;;;2.75;1.27;;;;;;;6.20;100.00;93749.22;5000777;28;20085;-77
2022/09/28 04:04:21;;;;;;;2.88;1.10;;;;;;;6.24;100.00;93739.75;4992812;28;20042;-76
2022/09/28 04:06:47;;;;;;;4.95;1.30;;;;;;;6.23;100.00;93738.22;5001841;28;20757;-77
2022/09/28 04:09:12;;;;;;;5.28;1.50;;;;;;;6.23;100.00;93735.59;4999665;28;20038;-77
2022/09/28 04:11:38;;;;;;;2.13;1.55;;;;;;;6.19;100.00;93732.00;5002770;28;20034;-77
2022/09/28 04:14:04;;;;;;;2.55;1.58;;;;;;;6.23;100.00;93725.16;5007584;28;20042;-77
2022/09/28 04:16:29;;;;;;;1.70;1.35;;;;;;;6.29;100.00;93731.84;5003419;28;20042;-78
2022/09/28 04:18:57;;;;;;;1.90;1.30;;;;;;;6.30;100.00;93722.94;5003679;28;20046;-77
2022/09/28 04:21:22;;;;;;;1.50;1.30;;;;;;;6.27;100.00;93713.06;4986975;28;20050;-77
2022/09/28 04:23:48;;;;;;;1.63;1.30;;;;;;;6.25;100.00;93725.66;4989391;28;20391;-77
2022/09/28 04:26:16;;;;;;;2.50;1.73;;;;;;;6.23;100.00;93723.31;5005936;28;20062;-77
2022/09/28 04:31:35;;;;;;;2.65;1.45;;;;;;;6.20;100.00;93728.34;4993204;28;20045;-77
2022/09/28 04:34:01;;;;;;;5.20;1.58;;;;;;;6.12;100.00;93731.59;5005742;28;20157;-78
2022/09/28 04:36:26;;;;;;;1.60;1.05;;;;;;;6.08;100.00;93734.00;4994071;28;20045;-78
2022/09/28 04:38:52;;;;;;;1.73;0.90;;;;;;;6.09;100.00;93732.16;4999883;28;20069;-77
2022/09/28 04:41:17;;;;;;;1.20;0.90;;;;;;;6.11;100.00;93730.06;4987972;28;20065;-77
2022/09/28 04:43:46;;;;;;;1.23;1.00;;;;;;;6.12;100.00;93731.59;5003289;28;20424;-77
2022/09/28 04:46:12;;;;;;;1.40;1.00;;;;;;;6.11;100.00;93722.22;5003444;28;20089;-77
2022/09/28 04:48:37;;;;;;;1.60;1.05;;;;;;;6.05;100.00;93722.28;5006429;28;20046;-77
2022/09/28 04:51:03;;;;;;;0.52;0.52;;;;;;;6.06;100.00;93723.84;4978610;28;20070;-77
2022/09/28 04:53:29;;;;;;;1.38;0.95;;;;;;;6.09;100.00;93716.47;5008656;28;20137;-77
2022/09/28 04:55:56;;;;;;;6.03;0.88;;;;;;;6.11;100.00;93724.81;4988386;28;20042;-77
2022/09/28 04:58:22;;;;;;;0.85;0.70;;;;;;;6.13;100.00;93727.91;5003345;28;20042;-77
2022/09/28 05:00:50;;;;;;;0.45;0.45;;;;;;;6.11;100.00;93724.81;5007276;28;20053;-77
2022/09/28 05:03:16;;;;;;;1.52;0.98;;;;;;;6.09;100.00;93732.16;4987158;28;20147;-77
2022/09/28 05:05:46;;;;;;;3.33;0.98;;;;;;;6.16;100.00;93737.78;4982764;28;20124;-76
2022/09/28 05:08:12;;;;;;;0.85;0.73;;;;;;;6.13;100.00;93730.53;5001629;28;20402;-77
2022/09/28 05:10:40;;;;;;;1.50;0.70;;;;;;;6.11;100.00;93735.28;5000554;28;20052;-77
2022/09/28 05:13:07;;;;;;;1.75;0.88;;;;;;;6.17;100.00;93739.34;4981970;28;20042;-77
2022/09/28 05:15:34;;;;;;;4.55;0.85;;;;;;;6.19;100.00;93747.66;5001289;28;20046;-77
2022/09/28 05:18:00;;;;;;;2.08;0.50;;;;;;;6.22;100.00;93747.09;5013622;28;20076;-77
2022/09/28 05:20:25;;;;;;;3.15;1.05;;;;;;;6.17;100.00;93744.56;4997542;28;20069;-77
2022/09/28 05:22:51;;;;;;;6.57;1.23;;;;;;;6.21;100.00;93750.78;5003626;28;20042;-77
2022/09/28 05:25:17;;;;;;;1.75;1.02;;;;;;;6.19;100.00;93743.25;4995293;28;20053;-77
2022/09/28 05:27:42;;;;;;;1.85;0.68;;;;;;;6.23;100.00;93732.97;5003187;28;20064;-77
2022/09/28 05:30:09;;;;;;;1.27;0.80;;;;;;;6.24;100.00;93734.53;4996542;28;20046;-77
2022/09/28 05:32:43;;;;;;;2.58;1.02;;;;;;;6.23;100.00;93725.16;4989899;28;20458;-77
2022/09/28 05:35:12;;;;;;;1.27;0.80;;;;;;;6.24;100.00;93713.66;4986887;28;20042;-77
2022/09/28 05:37:38;;;;;;;1.88;0.80;;;;;;;6.27;100.00;93702.63;4993982;28;20054;-77
2022/09/28 05:40:04;;;;;;;3.35;1.15;;;;;;;6.24;100.00;93703.19;5008999;28;20057;-77
2022/09/28 05:42:30;;;;;;;4.70;0.90;;;;;;;6.23;100.00;93701.63;5014397;28;20052;-77
2022/09/28 05:44:58;;;;;;;1.85;1.08;;;;;;;6.28;100.00;93704.19;4989411;28;20037;-77
2022/09/28 05:47:25;;;;;;;4.03;1.33;;;;;;;6.33;100.00;93700.69;5010139;28;20038;-77
2022/09/28 05:49:51;;;;;;;3.25;1.35;;;;;;;6.34;100.00;93692.56;5009704;28;20448;-77
2022/09/28 05:52:17;;;;;;;3.03;1.17;;;;;;;6.32;100.00;93699.94;5001876;28;20116;-77
2022/09/28 05:54:42;;;;;;;3.92;1.30;;;;;;;6.40;100.00;93714.16;5001911;28;20045;-78
2022/09/28 05:57:08;;;;;;;2.92;1.23;;;;;;;6.39;100.00;93710.78;5009912;28;20045;-77
2022/09/28 05:59:34;;;;;;;2.15;0.82;;;;;;;6.35;100.00;93704.59;5008393;28;20041;-77
2022/09/28 06:02:00;;;;;;;2.60;1.00;;;;;;;6.37;100.00;93705.06;4989334;28;20052;-76
2022/09/28 06:04:26;;;;;;;1.33;0.90;;;;;;;6.33;100.00;93701.47;5001738;28;20512;-76
2022/09/28 06:06:52;;;;;;;2.75;0.82;;;;;;;6.32;100.00;93699.94;5012143;28;20044;-76
2022/09/28 06:09:17;;;;;;;6.07;1.30;;;;;;;6.32;100.00;93678.25;4992726;28;20553;-77
2022/09/28 06:11:43;;;;;;;1.30;1.20;;;;;;;6.32;100.00;93673.03;4985856;28;20072;-76
2022/09/28 06:14:08;;;;;;;1.25;0.90;;;;;;;6.31;100.00;93667.03;4989524;28;20044;-76
2022/09/28 06:16:34;;;;;;;1.38;0.98;;;;;;;6.35;100.00;93662.78;5006818;28;20053;-76
2022/09/28 06:19:00;;;;;;;2.78;1.20;;;;;;;6.33;100.00;93654.44;5005190;28;20042;-76
2022/09/28 06:21:26;;;;;;;2.72;1.30;;;;;;;6.36;100.00;93648.63;5005781;28;20440;-76
2022/09/28 06:23:51;;;;;;;2.63;1.65;;;;;;;6.34;100.00;93648.16;5007732;28;20149;-77
2022/09/28 06:26:17;;;;;;;7.25;1.42;;;;;;;6.40;100.00;93659.31;4993676;28;20453;-76
2022/09/28 06:28:42;;;;;;;4.55;1.58;;;;;;;6.39;100.00;93658.53;5007933;28;20053;-76
2022/09/28 06:31:08;;;;;;;5.18;1.60;;;;;;;6.41;100.00;93653.78;5007084;28;20034;-77
2022/09/28 06:33:34;;;;;;;4.72;1.40;;;;;;;6.46;100.00;93657.38;5001043;28;20041;-75
2022/09/28 06:36:00;;;;;;;9.88;1.70;;;;;;;6.50;100.00;93642.69;5005381;28;20181;-75
2022/09/28 06:38:26;;;;;;;2.38;0.95;;;;;;;6.47;100.00;93649.25;4990609;28;20484;-76
2022/09/28 06:40:51;;;;;;;1.15;0.82;;;;;;;6.51;100.00;93644.22;5003093;28;20039;-76
2022/09/28 06:43:17;;;;;;;3.30;1.10;;;;;;;6.50;100.00;93653.91;5007646;28;20683;-76
2022/09/28 06:45:43;;;;;;;3.75;1.25;;;;;;;6.51;100.00;93652.84;5000926;28;20057;-76
2022/09/28 06:48:10;;;;;;;5.85;1.25;;;;;;;6.54;100.00;93660.09;4982985;28;20113;-76
2022/09/28 06:50:38;;;;;;;2.63;1.23;;;;;;;6.50;100.00;93658.34;5003352;28;20049;-76
2022/09/28 06:53:05;;;;;;;4.00;1.00;;;;;;;6.55;100.00;93660.84;4997924;28;20049;-76
2022/09/28 06:55:31;;;;;;;1.63;0.90;;;;;;;6.57;100.00;93658.75;5006063;28;20050;-75
2022/09/28 06:58:09;;;;;;;0.82;0.82;;;;;;;6.59;100.00;93659.22;5010041;28;20148;-76
2022/09/28 07:00:36;;;;;;;1.60;0.90;;;;;;;6.53;100.00;93657.78;4986702;28;20042;-76
2022/09/28 07:03:04;;;;;;;1.15;1.05;;;;;;;6.62;100.00;93656.03;4991900;28;20048;-75
2022/09/28 07:05:33;;;;;;;2.10;0.68;;;;;;;6.64;100.00;93653.13;5001088;28;20038;-75
2022/09/28 07:08:00;;;;;;;4.20;1.27;;;;;;;6.67;100.00;93658.56;4983498;28;20594;-76
2022/09/28 07:10:28;;;;;;;2.28;0.95;;;;;;;6.67;100.00;93653.34;5000794;28;20057;-75
2022/09/28 07:12:55;;;;;;;1.20;0.70;;;;;;;6.69;100.00;93656.41;5010228;28;20038;-76
2022/09/28 07:15:22;;;;;;;0.93;0.90;;;;;;;6.73;100.00;93661.84;5006138;28;20042;-76
2022/09/28 07:17:47;;;;;;;4.80;1.10;;;;;;;6.80;100.00;93658.88;4993086;28;20048;-76
2022/09/28 07:20:13;;;;;;;2.05;0.98;;;;;;;6.78;100.00;93653.13;5010361;28;20431;-76
2022/09/28 07:22:39;;;;;;;2.08;1.10;;;;;;;6.89;100.00;93667.56;4992082;28;20049;-76
2022/09/28 07:25:06;;;;;;;1.30;0.80;;;;;;;6.85;100.00;93663.97;5002310;28;20046;-77
2022/09/28 07:27:32;;;;;;;2.05;1.10;;;;;;;6.89;100.00;93667.56;5002042;28;20488;-77
2022/09/28 07:29:58;;;;;;;2.08;1.08;;;;;;;6.90;100.00;93676.97;5000416;28;20046;-76
2022/09/28 07:32:26;;;;;;;2.70;1.02;;;;;;;6.90;100.00;93671.75;5009862;28;20050;-76
2022/09/28 07:34:52;;;;;;;1.58;0.82;;;;;;;6.96;100.00;93681.03;5002314;28;20081;-76
2022/09/28 07:37:18;;;;;;;0.70;0.70;;;;;;;6.94;100.00;93672.72;4980288;28;20092;-76
2022/09/28 07:42:29;;;;;;;2.05;0.93;;;;;;;7.06;100.00;93691.28;5001518;28;20050;-77
2022/09/28 07:44:56;;;;;;;2.63;0.65;;;;;;;7.08;100.00;93683.94;5001722;28;20044;-76
2022/09/28 07:47:28;;;;;;;0.57;0.50;;;;;;;7.10;100.00;93694.88;4998601;28;20069;-76
2022/09/28 07:49:55;;;;;;;0.60;0.60;;;;;;;7.13;100.00;93685.69;4996114;28;20408;-76
2022/09/28 07:52:25;;;;;;;1.40;1.10;;;;;;;7.20;100.00;93690.53;5002301;28;20096;-76
2022/09/28 07:54:57;;;;;;;0.95;0.73;;;;;;;7.24;100.00;93692.25;5002455;28;20236;-76
2022/09/28 07:57:23;;;;;;;1.02;0.90;;;;;;;7.22;100.00;93693.63;5011521;28;20114;-76
2022/09/28 07:59:49;;;;;;;5.50;0.82;;;;;;;7.28;100.00;93695.06;4999637;28;20127;-76
2022/09/28 08:02:19;;;;;;;0.70;0.60;;;;;;;7.33;100.00;93691.59;5001147;28;20054;-76
2022/09/28 08:04:48;;;;;;;1.02;0.73;;;;;;;7.36;100.00;93704.84;5006897;28;20439;-77
2022/09/28 08:07:16;;;;;;;1.02;0.70;;;;;;;7.39;100.00;93688.56;4988796;28;20049;-76
2022/09/28 08:09:42;;;;;;;3.42;1.00;;;;;;;7.48;100.00;93690.47;4993665;28;20038;-77
2022/09/28 08:12:08;;;;;;;1.52;1.00;;;;;;;7.46;100.00;93696.78;4990415;28;20041;-78
2022/09/28 08:14:34;;;;;;;2.03;1.13;;;;;;;7.49;100.00;93698.03;4992895;28;20401;-77
2022/09/28 08:17:00;;;;;;;3.22;1.30;;;;;;;7.51;100.00;93695.91;4994266;28;20050;-80
2022/09/28 08:21:43;;;;;;;2.33;0.93;;;;;;;7.51;100.00;93705.59;5002114;28;20042;-77
2022/09/28 08:22:12;;;;;;;1.70;1.02;;;;;;;7.51;100.00;93705.59;4999342;28;20261;-78
2022/09/28 08:24:38;;;;;;;1.10;0.93;;;;;;;7.56;100.00;93710.75;5003280;28;20038;-79
2022/09/28 08:27:03;;;;;;;2.72;0.90;;;;;;;7.57;100.00;93714.88;5010640;28;20038;-78
2022/09/28 08:29:30;;;;;;;2.67;0.88;;;;;;;7.57;100.00;93715.69;5010373;28;20716;-77
2022/09/28 08:31:58;;;;;;;1.33;1.02;;;;;;;7.59;100.00;93715.38;4987530;28;20041;-78
2022/09/28 08:34:24;;;;;;;0.65;0.57;;;;;;;7.51;100.00;93710.84;4991844;28;20064;-77
2022/09/28 08:36:49;;;;;;;5.43;1.48;;;;;;;7.56;100.00;93715.97;5005039;28;20492;-77
2022/09/28 08:39:15;;;;;;;2.33;1.50;;;;;;;7.58;100.00;93716.44;4988652;28;20048;-77
2022/09/28 08:41:40;;;;;;;2.65;1.50;;;;;;;7.68;100.00;93713.59;4989642;28;20044;-78
2022/09/28 08:44:22;;;;;;;1.35;1.10;;;;;;;7.68;100.00;93711.00;5004870;28;20448;-77
2022/09/28 08:46:53;;;;;;;1.70;0.75;;;;;;;7.68;100.00;93721.47;5006370;28;20504;-78
2022/09/28 08:49:37;;;;;;;1.65;1.10;;;;;;;7.70;100.00;93698.41;4983169;28;20703;-78
2022/09/28 08:52:12;;;;;;;1.30;1.20;;;;;;;7.83;100.00;93706.50;4989343;28;20055;-78
2022/09/28 08:54:43;;;;;;;;;;;;;;;7.88;100.00;93720.25;5002042;28;20049;-78
2022/09/28 08:57:12;;;;;;;1.58;1.08;;;;;;;7.88;100.00;93724.72;5004794;28;20406;-77
2022/09/28 08:59:46;;;;;;;3.30;0.75;;;;;;;7.92;100.00;93725.69;4989561;28;20050;-78
2022/09/28 09:02:19;;;;;;;;;;;;;;;7.97;100.00;93728.19;5005961;28;20687;-78
2022/09/28 09:04:44;;;;;;;1.15;0.95;;;;;;;8.00;100.00;93717.09;4988507;28;19926;-78
2022/09/28 09:07:13;;;;;;;3.95;1.50;;;;;;;8.07;100.00;93730.56;5007662;28;20045;-77
2022/09/28 09:10:00;;;;;;;1.65;1.23;;;;;;;8.09;100.00;93725.81;4998206;28;20048;-77
2022/09/28 09:12:42;;;;;;;6.20;1.70;;;;;;;8.21;100.00;93732.38;5003877;28;20397;-77
2022/09/28 09:15:27;;;;;;;5.63;1.30;;;;;;;8.27;100.00;93731.94;5006175;28;20060;-78
2022/09/28 09:18:24;;;;;;;1.85;1.23;;;;;;;8.35;100.00;93740.94;5010481;28;20265;-78
2022/09/28 09:20:57;;;;;;;2.92;0.93;;;;;;;8.37;100.00;93770.25;5003125;28;20069;-77
2022/09/28 09:23:38;;;;;;;4.38;1.30;;;;;;;8.23;100.00;93808.84;5005929;28;20117;-79
2022/09/28 09:26:11;;;;;;;3.40;0.75;;;;;;;7.89;100.00;93810.09;5007742;28;20042;-76
2022/09/28 09:28:42;;;;;;;2.15;0.90;;;;;;;7.66;100.00;93770.75;5006445;28;20092;-77
2022/09/28 09:31:29;;;;;;;1.45;1.02;;;;;;;7.63;100.00;93813.22;5008898;28;20072;-77
2022/09/28 09:34:06;;;;;;;2.95;1.20;;;;;;;7.57;100.00;93824.84;4988911;28;20045;-77
2022/09/28 09:36:53;;;;;;;2.30;1.27;;;;;;;7.62;100.00;93816.91;5009422;28;20046;-77
2022/09/28 09:39:27;;;;;;;3.53;1.05;;;;;;;7.50;100.00;93813.97;5004544;28;20042;-78
2022/09/28 09:42:06;;;;;;;2.50;1.13;;;;;;;7.51;100.00;93826.00;4983101;28;20053;-77
2022/09/28 09:45:04;;;;;;;2.10;1.30;;;;;;;7.39;100.00;93824.63;5003081;28;20046;-76
2022/09/28 09:47:44;;;;;;;3.83;1.05;;;;;;;7.45;100.00;93823.47;4977125;28;20606;-78
2022/09/28 09:50:13;;;;;;;3.17;1.40;;;;;;;7.44;100.00;93827.19;5012890;28;20183;-78
2022/09/28 09:52:54;;;;;;;3.67;1.52;;;;;;;7.39;100.00;93829.88;5000098;28;20042;-77
2022/09/28 09:55:49;;;;;;;1.20;1.10;;;;;;;7.43;100.00;93824.84;4998639;28;20045;-78
2022/09/28 09:58:23;;;;;;;2.85;1.20;;;;;;;7.33;100.00;93835.50;5002521;28;20478;-76
2022/09/28 10:00:52;;;;;;;2.08;1.00;;;;;;;7.50;100.00;93840.16;5009072;28;20535;-77
2022/09/28 10:03:31;;;;;;;2.28;1.30;;;;;;;7.55;100.00;93845.31;4991701;28;20048;-78
2022/09/28 10:06:00;;;;;;;3.55;1.38;;;;;;;7.62;100.00;93835.22;5003657;28;20500;-78
2022/09/28 10:08:27;;;;;;;2.55;1.33;;;;;;;7.53;100.00;93844.81;5012089;28;20038;-77
2022/09/28 10:11:07;;;;;;;1.92;1.35;;;;;;;7.52;100.00;93843.28;4988792;28;20042;-77
2022/09/28 10:13:33;;;;;;;1.60;1.10;;;;;;;7.60;100.00;93840.75;5003103;28;20061;-76
2022/09/28 10:16:00;;;;;;;5.72;1.50;;;;;;;7.57;100.00;93851.81;5008960;28;20471;-77
2022/09/28 10:18:26;;;;;;;3.55;1.50;;;;;;;7.51;100.00;93844.31;5002549;28;20093;-78
2022/09/28 10:20:52;;;;;;;3.78;1.80;;;;;;;7.59;100.00;93851.50;5006756;28;20534;-77
2022/09/28 10:23:23;;;;;;;4.03;1.55;;;;;;;7.72;100.00;93848.09;5006299;28;20069;-77
2022/09/28 10:25:51;;;;;;;3.85;1.38;;;;;;;7.65;100.00;93858.19;5008429;28;20124;-78
2022/09/28 10:28:38;;;;;;;2.25;1.30;;;;;;;7.38;100.00;93864.94;5014014;28;20738;-77
2022/09/28 10:31:34;;;;;;;2.88;1.50;;;;;;;7.35;100.00;93860.28;5003102;28;20046;-77
2022/09/28 10:34:00;;;;;;;2.42;1.40;;;;;;;7.37;100.00;93857.38;4982298;28;20531;-77
2022/09/28 10:36:27;;;;;;;3.33;1.45;;;;;;;7.36;100.00;93861.84;5007349;28;20061;-78
2022/09/28 10:38:53;;;;;;;4.72;1.50;;;;;;;7.44;100.00;93858.59;5001637;28;20038;-77
2022/09/28 10:41:21;;;;;;;3.50;1.30;;;;;;;7.50;100.00;93866.31;5008251;28;20037;-77
2022/09/28 10:44:15;;;;;;;4.20;1.70;;;;;;;7.50;100.00;93872.34;5005839;28;20042;-78
2022/09/28 10:46:40;;;;;;;2.78;1.70;;;;;;;7.69;100.00;93874.88;5004428;28;20054;-77
2022/09/28 10:49:14;;;;;;;3.85;2.10;;;;;;;7.80;100.00;93876.25;5007107;28;20510;-78
2022/09/28 10:51:52;;;;;;;5.03;2.17;;;;;;;8.03;100.00;93871.09;5005769;28;20050;-77
2022/09/28 10:54:20;;;;;;;4.05;2.05;;;;;;;8.00;100.00;93882.13;4987635;28;20301;-77
2022/09/28 10:56:47;;;;;;;3.10;1.73;;;;;;;7.97;100.00;93880.91;5010137;28;20038;-77
2022/09/28 10:59:34;;;;;;;4.40;1.92;;;;;;;8.21;100.00;93879.13;5001388;28;20042;-79
2022/09/28 11:02:08;;;;;;;4.72;1.77;;;;;;;8.36;100.00;93870.94;5007152;28;20042;-78
2022/09/28 11:04:38;;;;;;;;;;;;;;;8.22;100.00;93870.19;4997361;28;20628;-78
2022/09/28 11:07:16;;;;;;;4.30;1.52;;;;;;;8.26;100.00;93860.66;5010530;28;20399;-77
2022/09/28 11:09:47;;;;;;;4.53;1.50;;;;;;;8.51;100.00;93855.97;4966611;28;1050763;-77
2022/09/28 11:12:19;;;;;;;2.45;1.50;;;;;;;8.56;100.00;93863.72;4998179;28;20049;-77
2022/09/28 11:14:51;;;;;;;1.70;1.35;;;;;;;8.83;100.00;93855.75;5006717;28;20689;-78
2022/09/28 11:17:24;;;;;;;2.40;1.33;;;;;;;8.87;100.00;93868.28;5004399;28;20058;-77
2022/09/28 11:19:51;;;;;;;3.72;1.27;;;;;;;8.73;100.00;93879.59;4986049;28;20053;-77
2022/09/28 11:22:25;;;;;;;3.45;1.50;;;;;;;8.73;100.00;93874.34;4995796;28;20516;-79
2022/09/28 11:24:51;;;;;;;4.32;1.60;;;;;;;8.57;100.00;93870.53;5028253;28;20026;-77
2022/09/28 11:27:25;;;;;;;4.93;1.33;;;;;;;8.48;100.00;93873.84;5034888;28;20026;-80
2022/09/28 11:29:58;;;;;;;7.63;1.70;;;;;;;8.52;100.00;93868.00;5018267;28;20033;-78
2022/09/28 11:32:29;;;;;;;2.08;1.00;;;;;;;8.57;100.00;93873.13;5008466;28;20053;-77
2022/09/28 11:34:58;;;;;;;4.53;1.50;;;;;;;8.58;100.00;93882.56;5018045;28;20052;-75
2022/09/28 11:37:57;;;;;;;2.53;1.40;;;;;;;8.56;100.00;93884.69;5035953;28;20065;-77
2022/09/28 11:40:50;;;;;;;3.97;1.50;;;;;;;8.51;100.00;93887.44;5012322;28;20034;-76
2022/09/28 11:43:46;;;;;;;4.38;1.70;;;;;;;8.62;100.00;93875.63;5036728;28;20031;-75
2022/09/28 11:46:25;;;;;;;3.22;1.60;;;;;;;8.63;100.00;93874.56;5007938;28;20037;-76
2022/09/28 11:48:58;;;;;;;4.05;1.80;;;;;;;8.65;100.00;93864.56;5004762;28;20126;-76
2022/09/28 11:51:30;;;;;;;8.68;2.00;;;;;;;8.59;100.00;93869.16;4989075;28;20817;-76
2022/09/28 11:54:09;;;;;;;5.70;1.80;;;;;;;8.61;100.00;93877.50;5007064;28;20495;-77
2022/09/28 11:56:41;;;;;;;3.67;1.90;;;;;;;8.65;100.00;93888.19;5005788;28;20258;-76
2022/09/28 11:59:28;;;;;;;2.03;1.38;;;;;;;8.64;100.00;93887.38;5007323;28;20665;-77